createdAt,value
2018-09-18T00:01:43.523Z,11.05
2018-09-18T00:04:12.406Z,10.85
2018-09-18T00:06:41.914Z,10.78
2018-09-18T00:09:11.444Z,11.13
2018-09-18T00:11:40.574Z,11.05
2018-09-18T00:14:09.398Z,10.60
2018-09-18T00:16:43.095Z,11.40
2018-09-18T00:19:13.312Z,11.85
2018-09-18T00:21:42.375Z,11.15
2018-09-18T00:24:11.995Z,11.22
2018-09-18T00:26:41.198Z,11.53
2018-09-18T00:29:13.395Z,11.00
2018-09-18T00:31:42.092Z,10.78
2018-09-18T00:34:14.605Z,11.73
2018-09-18T00:36:43.177Z,11.50
2018-09-18T00:39:13.225Z,11.38
2018-09-18T00:41:47.711Z,11.40
2018-09-18T00:44:17.380Z,11.63
2018-09-18T00:46:46.707Z,11.38
2018-09-18T00:49:15.393Z,12.35
2018-09-18T00:51:44.590Z,11.75
2018-09-18T00:56:47.040Z,11.80
2018-09-18T00:59:16.157Z,11.83
2018-09-18T01:01:44.725Z,12.05
2018-09-18T01:04:13.469Z,12.10
2018-09-18T01:06:42.122Z,12.18
2018-09-18T01:09:14.087Z,12.07
2018-09-18T01:11:42.776Z,11.97
2018-09-18T01:14:14.088Z,11.73
2018-09-18T01:16:42.768Z,12.37
2018-09-18T01:19:11.404Z,12.70
2018-09-18T01:21:41.121Z,12.68
2018-09-18T01:24:09.898Z,13.38
2018-09-18T01:26:38.980Z,13.22
2018-09-18T01:29:07.580Z,13.65
2018-09-18T01:31:36.316Z,13.62
2018-09-18T01:34:05.487Z,13.68
2018-09-18T01:36:34.350Z,13.35
2018-09-18T01:39:07.250Z,13.70
2018-09-18T01:41:35.891Z,13.70
2018-09-18T01:44:06.602Z,13.72
2018-09-18T01:46:35.269Z,13.62
2018-09-18T01:49:10.426Z,13.80
2018-09-18T01:51:39.103Z,13.38
2018-09-18T01:54:07.838Z,12.93
2018-09-18T01:56:36.919Z,13.72
2018-09-18T01:59:05.756Z,13.28
2018-09-18T02:01:34.963Z,14.23
2018-09-18T02:04:05.588Z,14.07
2018-09-18T02:06:34.193Z,13.72
2018-09-18T02:09:04.815Z,13.62
2018-09-18T02:11:33.766Z,14.05
2018-09-18T02:14:04.418Z,14.20
2018-09-18T02:16:33.566Z,13.80
2018-09-18T02:19:02.747Z,14.00
2018-09-18T02:21:31.334Z,13.98
2018-09-18T02:24:01.716Z,13.73
2018-09-18T02:26:31.258Z,13.93
2018-09-18T02:29:02.726Z,14.63
2018-09-18T02:31:32.742Z,14.53
2018-09-18T02:34:01.379Z,15.43
2018-09-18T02:36:33.215Z,15.75
2018-09-18T02:39:03.634Z,16.32
2018-09-18T02:41:32.271Z,16.00
2018-09-18T02:44:02.939Z,15.53
2018-09-18T02:46:31.623Z,15.43
2018-09-18T02:49:00.193Z,15.50
2018-09-18T02:51:28.815Z,16.17
2018-09-18T02:53:57.475Z,16.45
2018-09-18T02:56:26.074Z,16.67
2018-09-18T02:58:58.130Z,16.37
2018-09-18T03:01:26.826Z,16.93
2018-09-18T03:03:55.442Z,17.02
2018-09-18T03:06:24.337Z,17.15
2018-09-18T03:08:53.573Z,17.65
2018-09-18T03:11:22.267Z,17.52
2018-09-18T03:13:50.887Z,17.48
2018-09-18T03:16:19.384Z,17.85
2018-09-18T03:18:51.917Z,17.60
2018-09-18T03:21:20.905Z,17.90
2018-09-18T03:23:49.483Z,18.75
2018-09-18T03:26:18.122Z,19.00
2018-09-18T03:28:46.730Z,19.00
2018-09-18T03:31:15.371Z,18.60
2018-09-18T03:33:44.078Z,17.90
2018-09-18T03:36:20.884Z,19.25
2018-09-18T03:38:49.944Z,18.45
2018-09-18T03:41:18.603Z,19.07
2018-09-18T03:43:47.223Z,19.42
2018-09-18T03:46:15.967Z,19.07
2018-09-18T03:48:47.646Z,19.30
2018-09-18T03:51:19.885Z,19.92
2018-09-18T03:53:48.572Z,20.43
2018-09-18T03:56:17.221Z,19.35
2018-09-18T03:58:45.938Z,19.13
2018-09-18T04:01:14.547Z,19.05
2018-09-18T04:03:46.784Z,19.10
2018-09-18T04:06:17.016Z,18.55
2018-09-18T04:08:47.979Z,18.70
2018-09-18T04:11:16.569Z,19.00
2018-09-18T04:13:45.113Z,18.02
2018-09-18T04:16:13.914Z,17.95
2018-09-18T04:18:44.969Z,17.57
2018-09-18T04:21:13.675Z,18.35
2018-09-18T04:23:44.275Z,18.50
2018-09-18T04:26:12.963Z,19.15
2018-09-18T04:28:41.549Z,19.67
2018-09-18T04:31:11.166Z,18.62
2018-09-18T04:33:39.799Z,19.32
2018-09-18T04:36:08.325Z,18.75
2018-09-18T04:38:37.216Z,18.90
2018-09-18T04:41:06.255Z,17.90
2018-09-18T04:43:34.954Z,19.27
2018-09-18T04:46:05.912Z,19.87
2018-09-18T04:48:34.622Z,19.10
2018-09-18T04:51:03.656Z,18.75
2018-09-18T04:53:32.304Z,18.92
2018-09-18T04:56:02.951Z,20.07
2018-09-18T04:58:31.925Z,19.50
2018-09-18T05:01:00.643Z,18.62
2018-09-18T05:03:39.121Z,19.12
2018-09-18T05:06:07.724Z,20.02
2018-09-18T05:08:36.475Z,20.10
2018-09-18T05:11:06.020Z,19.10
2018-09-18T05:13:34.671Z,20.80
2018-09-18T05:16:03.391Z,19.65
2018-09-18T05:18:34.081Z,20.20
2018-09-18T05:21:02.704Z,23.32
2018-09-18T05:23:32.758Z,25.10
2018-09-18T05:26:01.386Z,21.07
2018-09-18T05:28:30.898Z,19.55
2018-09-18T05:30:59.703Z,20.60
2018-09-18T05:33:37.919Z,20.62
2018-09-18T05:36:17.935Z,19.67
2018-09-18T05:38:46.932Z,19.87
2018-09-18T05:41:15.537Z,20.80
2018-09-18T05:43:44.290Z,20.43
2018-09-18T05:46:12.902Z,20.57
2018-09-18T05:48:42.935Z,21.70
2018-09-18T05:51:11.692Z,21.85
2018-09-18T05:53:40.366Z,20.72
2018-09-18T05:56:09.142Z,21.37
2018-09-18T05:58:37.819Z,20.88
2018-09-18T06:01:06.636Z,21.37
2018-09-18T06:03:35.959Z,20.85
2018-09-18T06:06:04.566Z,20.57
2018-09-18T06:08:34.046Z,21.80
2018-09-18T06:11:04.264Z,20.77
2018-09-18T06:13:32.927Z,21.33
2018-09-18T06:16:02.066Z,22.48
2018-09-18T06:18:30.643Z,21.40
2018-09-18T06:20:59.614Z,21.77
2018-09-18T06:23:28.303Z,21.00
2018-09-18T06:25:59.848Z,21.10
2018-09-18T06:28:28.533Z,20.60
2018-09-18T06:30:57.304Z,21.17
2018-09-18T06:33:26.014Z,21.10
2018-09-18T06:35:56.440Z,21.52
2018-09-18T06:38:25.005Z,23.07
2018-09-18T06:40:53.689Z,22.93
2018-09-18T06:43:22.354Z,24.18
2018-09-18T06:45:51.021Z,23.35
2018-09-18T06:48:20.783Z,23.70
2018-09-18T06:50:49.483Z,23.67
2018-09-18T06:53:18.696Z,23.85
2018-09-18T06:55:47.856Z,25.48
2018-09-18T06:58:17.917Z,24.80
2018-09-18T07:00:47.811Z,25.20
2018-09-18T07:03:16.468Z,27.48
2018-09-18T07:05:45.276Z,25.68
2018-09-18T07:08:13.889Z,26.97
2018-09-18T07:10:43.831Z,26.77
2018-09-18T07:13:12.577Z,28.15
2018-09-18T07:15:43.307Z,27.17
2018-09-18T07:18:12.112Z,28.47
2018-09-18T07:20:40.989Z,27.93
2018-09-18T07:23:09.762Z,28.38
2018-09-18T07:25:38.638Z,28.38
2018-09-18T07:28:07.763Z,31.10
2018-09-18T07:30:36.616Z,31.70
2018-09-18T07:33:05.286Z,31.23
2018-09-18T07:35:33.957Z,29.95
2018-09-18T07:38:02.772Z,31.93
2018-09-18T07:40:38.062Z,30.17
2018-09-18T07:43:18.575Z,28.43
2018-09-18T07:45:47.619Z,25.57
2018-09-18T07:48:16.285Z,24.70
2018-09-18T07:50:45.133Z,23.85
2018-09-18T07:53:13.965Z,23.80
2018-09-18T07:55:42.672Z,23.85
2018-09-18T07:58:11.314Z,24.00
2018-09-18T08:00:41.170Z,23.27
2018-09-18T08:03:15.810Z,23.10
2018-09-18T08:05:53.083Z,22.58
2018-09-18T08:08:22.301Z,22.20
2018-09-18T08:10:51.267Z,23.02
2018-09-18T08:13:25.360Z,22.67
2018-09-18T08:16:03.913Z,22.02
2018-09-18T08:18:32.937Z,21.73
2018-09-18T08:21:03.890Z,21.87
2018-09-18T08:23:32.650Z,22.50
2018-09-18T08:26:01.697Z,21.40
2018-09-18T08:28:33.549Z,21.48
2018-09-18T08:31:07.052Z,22.02
2018-09-18T08:33:35.735Z,20.85
2018-09-18T08:36:04.638Z,21.17
2018-09-18T08:38:33.386Z,20.72
2018-09-18T08:41:05.944Z,20.62
2018-09-18T08:43:38.803Z,20.80
2018-09-18T08:46:07.826Z,20.70
2018-09-18T08:48:36.808Z,20.20
2018-09-18T08:51:05.774Z,19.77
2018-09-18T08:53:34.814Z,19.80
2018-09-18T08:56:03.922Z,20.12
2018-09-18T08:58:32.866Z,20.00
2018-09-18T09:01:02.112Z,18.40
2018-09-18T09:03:30.965Z,19.40
2018-09-18T09:06:00.044Z,18.82
2018-09-18T09:08:28.839Z,18.97
2018-09-18T09:10:57.466Z,19.20
2018-09-18T09:13:26.460Z,18.27
2018-09-18T09:15:55.553Z,18.25
2018-09-18T09:18:24.300Z,17.65
2018-09-18T09:20:56.061Z,17.80
2018-09-18T09:23:24.701Z,18.48
2018-09-18T09:25:53.803Z,18.33
2018-09-18T09:28:22.573Z,18.40
2018-09-18T09:30:51.498Z,19.50
2018-09-18T09:33:23.058Z,19.37
2018-09-18T09:35:52.147Z,19.70
2018-09-18T09:38:23.047Z,27.40
2018-09-18T09:40:53.425Z,26.82
2018-09-18T09:43:35.151Z,25.70
2018-09-18T09:46:06.191Z,26.80
2018-09-18T09:48:40.653Z,26.47
2018-09-18T09:51:14.535Z,26.53
2018-09-18T09:53:43.364Z,27.13
2018-09-18T09:56:12.169Z,28.63
2018-09-18T09:58:47.498Z,26.05
2018-09-18T10:01:22.719Z,26.33
2018-09-18T10:03:57.178Z,27.02
2018-09-18T10:06:26.537Z,26.62
2018-09-18T10:08:55.546Z,25.48
2018-09-18T10:11:24.332Z,27.20
2018-09-18T10:13:53.054Z,27.73
2018-09-18T10:16:21.851Z,26.07
2018-09-18T10:18:50.691Z,25.10
2018-09-18T10:21:19.445Z,23.60
2018-09-18T10:23:48.173Z,17.37
2018-09-18T10:26:17.115Z,14.83
2018-09-18T10:28:48.500Z,14.73
2018-09-18T10:31:17.164Z,14.50
2018-09-18T10:33:49.909Z,15.25
2018-09-18T10:36:21.572Z,13.40
2018-09-18T10:38:50.691Z,14.43
2018-09-18T10:41:19.736Z,15.25
2018-09-18T10:43:48.476Z,15.58
2018-09-18T10:46:17.311Z,16.50
2018-09-18T10:48:50.113Z,14.15
2018-09-18T10:51:19.124Z,14.63
2018-09-18T10:53:48.245Z,16.55
2018-09-18T10:56:16.959Z,15.15
2018-09-18T10:58:45.947Z,12.13
2018-09-18T11:01:14.775Z,13.10
2018-09-18T11:03:43.711Z,12.80
2018-09-18T11:06:13.529Z,11.93
2018-09-18T11:08:42.178Z,11.20
2018-09-18T11:11:11.036Z,11.48
2018-09-18T11:13:40.723Z,11.18
2018-09-18T11:16:09.520Z,10.93
2018-09-18T11:18:39.166Z,10.78
2018-09-18T11:21:07.928Z,10.65
2018-09-18T11:23:36.964Z,9.80
2018-09-18T11:26:05.997Z,11.12
2018-09-18T11:28:36.649Z,10.00
2018-09-18T11:31:05.658Z,9.20
2018-09-18T11:33:34.574Z,10.35
2018-09-18T11:36:04.175Z,10.03
2018-09-18T11:38:35.000Z,12.83
2018-09-18T11:41:09.545Z,10.45
2018-09-18T11:43:38.553Z,10.87
2018-09-18T11:46:07.979Z,10.93
2018-09-18T11:48:36.710Z,10.85
2018-09-18T11:51:07.902Z,10.55
2018-09-18T11:53:37.353Z,9.88
2018-09-18T11:56:07.386Z,10.58
2018-09-18T11:58:38.317Z,12.10
2018-09-18T12:01:08.768Z,10.95
2018-09-18T12:03:39.909Z,12.03
2018-09-18T12:06:14.783Z,11.60
2018-09-18T12:08:43.872Z,11.38
2018-09-18T12:11:12.785Z,10.58
2018-09-18T12:13:41.654Z,9.85
2018-09-18T12:16:10.323Z,11.85
2018-09-18T12:18:39.122Z,10.38
2018-09-18T12:21:08.129Z,10.90
2018-09-18T12:23:37.102Z,10.50
2018-09-18T12:26:05.814Z,10.30
2018-09-18T12:28:35.361Z,9.50
2018-09-18T12:31:04.324Z,8.50
2018-09-18T12:33:33.225Z,9.40
2018-09-18T12:36:02.875Z,8.93
2018-09-18T12:38:31.682Z,9.18
2018-09-18T12:41:00.844Z,9.43
2018-09-18T12:43:30.236Z,9.55
2018-09-18T12:45:59.309Z,8.35
2018-09-18T12:48:28.160Z,7.50
2018-09-18T12:50:56.863Z,7.80
2018-09-18T12:53:25.735Z,7.97
2018-09-18T12:55:54.644Z,8.85
2018-09-18T12:58:23.709Z,8.47
2018-09-18T13:00:52.393Z,7.67
2018-09-18T13:03:21.146Z,8.25
2018-09-18T13:05:49.991Z,7.80
2018-09-18T13:08:21.311Z,7.40
2018-09-18T13:10:50.086Z,7.28
2018-09-18T13:13:18.993Z,7.78
2018-09-18T13:15:47.748Z,8.23
2018-09-18T13:18:16.564Z,8.23
2018-09-18T13:20:45.470Z,8.50
2018-09-18T13:23:14.254Z,7.00
2018-09-18T13:25:50.103Z,7.08
2018-09-18T13:28:31.943Z,6.95
2018-09-18T13:31:07.809Z,7.00
2018-09-18T13:33:39.241Z,6.97
2018-09-18T13:36:09.728Z,7.10
2018-09-18T13:38:42.407Z,6.37
2018-09-18T13:41:11.893Z,6.70
2018-09-18T13:43:41.638Z,6.90
2018-09-18T13:46:12.432Z,7.15
2018-09-18T13:48:44.237Z,6.95
2018-09-18T13:51:13.123Z,6.60
2018-09-18T13:53:41.882Z,7.80
2018-09-18T13:56:10.692Z,6.40
2018-09-18T13:58:42.985Z,7.62
2018-09-18T14:01:16.399Z,6.83
2018-09-18T14:03:45.589Z,6.40
2018-09-18T14:06:14.855Z,6.50
2018-09-18T14:08:45.408Z,7.08
2018-09-18T14:11:14.196Z,5.87
2018-09-18T14:13:43.573Z,5.28
2018-09-18T14:16:12.417Z,5.85
2018-09-18T14:18:41.664Z,5.50
2018-09-18T14:21:10.400Z,5.62
2018-09-18T14:23:40.506Z,5.43
2018-09-18T14:26:10.726Z,5.70
2018-09-18T14:28:41.007Z,5.45
2018-09-18T14:31:11.647Z,5.77
2018-09-18T14:33:44.130Z,5.87
2018-09-18T14:36:13.628Z,5.50
2018-09-18T14:38:46.626Z,5.80
2018-09-18T14:41:31.747Z,5.12
2018-09-18T14:44:00.937Z,5.37
2018-09-18T14:46:29.790Z,4.92
2018-09-18T14:48:58.524Z,5.30
2018-09-18T14:51:32.077Z,5.50
2018-09-18T14:54:01.197Z,5.50
2018-09-18T14:56:29.824Z,5.55
2018-09-18T14:59:00.032Z,6.03
2018-09-18T15:01:30.850Z,5.63
2018-09-18T15:04:04.421Z,5.28
2018-09-18T15:06:33.436Z,5.30
2018-09-18T15:09:03.436Z,5.43
2018-09-18T15:11:32.183Z,5.85
2018-09-18T15:14:01.222Z,4.65
2018-09-18T15:16:31.231Z,6.10
2018-09-18T15:19:00.409Z,6.42
2018-09-18T15:21:29.063Z,6.05
2018-09-18T15:24:01.181Z,6.12
2018-09-18T15:26:32.788Z,5.28
2018-09-18T15:29:01.919Z,5.83
2018-09-18T15:31:30.837Z,5.50
2018-09-18T15:34:09.177Z,5.35
2018-09-18T15:36:37.935Z,7.58
2018-09-18T15:39:10.905Z,7.80
2018-09-18T15:41:40.374Z,5.92
2018-09-18T15:44:11.399Z,6.20
2018-09-18T15:46:41.265Z,5.72
2018-09-18T15:49:09.926Z,7.07
2018-09-18T15:51:41.245Z,7.60
2018-09-18T15:54:10.031Z,6.33
2018-09-18T15:56:38.939Z,7.40
2018-09-18T15:59:08.538Z,6.53
2018-09-18T16:01:37.964Z,6.80
2018-09-18T16:04:10.155Z,6.47
2018-09-18T16:06:40.286Z,7.67
2018-09-18T16:09:10.690Z,8.88
2018-09-18T16:11:41.250Z,7.42
2018-09-18T16:14:17.162Z,7.42
2018-09-18T16:16:45.990Z,7.13
2018-09-18T16:19:20.897Z,7.00
2018-09-18T16:21:51.194Z,8.45
2018-09-18T16:24:35.989Z,7.83
2018-09-18T16:27:07.915Z,7.23
2018-09-18T16:29:47.499Z,6.83
2018-09-18T16:32:34.076Z,7.97
2018-09-18T16:35:11.315Z,7.63
2018-09-18T16:37:55.112Z,8.10
2018-09-18T16:40:30.139Z,7.67
2018-09-18T16:43:02.817Z,7.92
2018-09-18T16:45:31.617Z,8.40
2018-09-18T16:48:02.045Z,9.00
2018-09-18T16:50:31.490Z,7.95
2018-09-18T16:53:00.242Z,8.30
2018-09-18T16:55:29.013Z,8.70
2018-09-18T16:57:58.255Z,16.10
2018-09-18T17:00:34.666Z,7.55
2018-09-18T17:03:05.207Z,7.90
2018-09-18T17:05:34.079Z,8.33
2018-09-18T17:08:03.416Z,8.13
2018-09-18T17:10:35.071Z,7.83
2018-09-18T17:13:05.014Z,8.80
2018-09-18T17:15:38.452Z,7.55
2018-09-18T17:18:13.331Z,8.20
2018-09-18T17:20:42.280Z,8.30
2018-09-18T17:23:11.312Z,7.95
2018-09-18T17:25:42.913Z,8.03
2018-09-18T17:28:11.928Z,7.72
2018-09-18T17:30:42.422Z,9.57
2018-09-18T17:33:11.033Z,9.90
2018-09-18T17:35:40.328Z,9.38
2018-09-18T17:38:09.317Z,9.53
2018-09-18T17:40:38.084Z,10.93
2018-09-18T17:43:10.721Z,9.38
2018-09-18T17:45:39.793Z,9.13
2018-09-18T17:48:10.466Z,9.73
2018-09-18T17:50:40.505Z,8.37
2018-09-18T17:53:09.396Z,9.10
2018-09-18T17:55:40.902Z,8.65
2018-09-18T17:58:13.477Z,7.80
2018-09-18T18:00:46.231Z,9.03
2018-09-18T18:03:18.350Z,9.00
2018-09-18T18:05:48.057Z,8.65
2018-09-18T18:08:25.073Z,8.48
2018-09-18T18:10:54.288Z,9.40
2018-09-18T18:13:24.464Z,9.45
2018-09-18T18:15:53.891Z,10.40
2018-09-18T18:18:22.740Z,9.85
2018-09-18T18:20:51.827Z,9.15
2018-09-18T18:23:23.139Z,8.60
2018-09-18T18:25:53.302Z,9.13
2018-09-18T18:28:23.220Z,9.55
2018-09-18T18:30:52.049Z,10.03
2018-09-18T18:33:23.120Z,9.65
2018-09-18T18:36:01.601Z,10.00
2018-09-18T18:38:30.376Z,10.53
2018-09-18T18:41:02.802Z,10.38
2018-09-18T18:43:31.565Z,10.13
2018-09-18T18:46:00.350Z,10.23
2018-09-18T18:48:29.338Z,10.78
2018-09-18T18:50:58.255Z,11.93
2018-09-18T18:53:26.954Z,11.23
2018-09-18T18:55:57.134Z,10.28
2018-09-18T18:58:32.838Z,10.08
2018-09-18T19:01:02.050Z,10.70
2018-09-18T19:03:30.957Z,10.43
2018-09-18T19:06:01.752Z,10.45
2018-09-18T19:08:30.697Z,10.23
2018-09-18T19:10:59.731Z,10.78
2018-09-18T19:13:34.231Z,11.48
2018-09-18T19:16:04.211Z,9.78
2018-09-18T19:18:37.158Z,10.60
2018-09-18T19:21:07.417Z,10.48
2018-09-18T19:23:37.813Z,10.10
2018-09-18T19:26:12.250Z,10.20
2018-09-18T19:28:41.253Z,10.82
2018-09-18T19:31:10.053Z,10.10
2018-09-18T19:33:39.241Z,10.20
2018-09-18T19:36:07.936Z,10.70
2018-09-18T19:38:37.759Z,11.30
2018-09-18T19:41:06.999Z,11.63
2018-09-18T19:43:37.351Z,11.63
2018-09-18T19:46:09.100Z,12.05
2018-09-18T19:48:39.348Z,10.90
2018-09-18T19:51:10.420Z,12.67
2018-09-18T19:53:42.119Z,10.20
2018-09-18T19:56:11.262Z,9.20
2018-09-18T19:58:40.940Z,9.53
2018-09-18T20:01:10.129Z,9.43
2018-09-18T20:03:40.374Z,9.10
2018-09-18T20:06:09.812Z,9.35
2018-09-18T20:08:38.524Z,9.53
2018-09-18T20:11:09.090Z,11.22
2018-09-18T20:13:37.900Z,10.80
2018-09-18T20:16:09.595Z,10.32
2018-09-18T20:18:38.284Z,13.28
2018-09-18T20:21:09.137Z,10.75
2018-09-18T20:23:37.988Z,11.27
2018-09-18T20:26:09.344Z,10.58
2018-09-18T20:28:42.789Z,11.05
2018-09-18T20:31:17.925Z,10.67
2018-09-18T20:33:46.958Z,12.90
2018-09-18T20:36:20.975Z,10.82
2018-09-18T20:38:49.801Z,10.55
2018-09-18T20:41:24.295Z,9.85
2018-09-18T20:43:53.755Z,10.48
2018-09-18T20:46:22.584Z,11.22
2018-09-18T20:48:52.575Z,11.03
2018-09-18T20:51:22.083Z,11.83
2018-09-18T20:53:53.153Z,11.25
2018-09-18T20:56:22.390Z,11.60
2018-09-18T20:58:51.764Z,12.10
2018-09-18T21:01:20.407Z,11.33
2018-09-18T21:03:49.110Z,12.00
2018-09-18T21:06:17.859Z,11.60
2018-09-18T21:08:46.630Z,11.33
2018-09-18T21:11:15.606Z,11.67
2018-09-18T21:13:44.550Z,11.88
2018-09-18T21:16:13.971Z,11.73
2018-09-18T21:18:42.963Z,11.05
2018-09-18T21:21:11.746Z,11.85
2018-09-18T21:23:40.477Z,11.40
2018-09-18T21:26:10.708Z,10.88
2018-09-18T21:28:39.611Z,10.90
2018-09-18T21:31:08.632Z,11.38
2018-09-18T21:33:37.375Z,12.53
2018-09-18T21:36:10.286Z,12.60
2018-09-18T21:38:41.680Z,12.30
2018-09-18T21:41:15.713Z,12.00
2018-09-18T21:43:44.675Z,12.05
2018-09-18T21:46:18.886Z,12.07
2018-09-18T21:48:48.864Z,11.80
2018-09-18T21:51:17.630Z,11.20
2018-09-18T21:53:46.413Z,12.00
2018-09-18T21:56:23.021Z,11.43
2018-09-18T21:58:51.771Z,11.30
2018-09-18T22:01:22.921Z,11.60
2018-09-18T22:03:51.756Z,11.22
2018-09-18T22:06:20.502Z,10.65
2018-09-18T22:08:50.773Z,10.80
2018-09-18T22:11:19.552Z,10.58
2018-09-18T22:13:48.370Z,11.13
2018-09-18T22:16:17.232Z,10.18
2018-09-18T22:18:45.983Z,8.15
2018-09-18T22:21:14.802Z,7.67
2018-09-18T22:23:44.687Z,7.75
2018-09-18T22:26:14.809Z,7.47
2018-09-18T22:28:43.676Z,7.35
2018-09-18T22:31:12.372Z,5.35
2018-09-18T22:33:42.287Z,5.58
2018-09-18T22:36:11.047Z,4.78
2018-09-18T22:38:39.844Z,4.83
2018-09-18T22:41:08.555Z,4.47
2018-09-18T22:43:37.378Z,3.92
2018-09-18T22:46:08.255Z,3.60
2018-09-18T22:48:38.996Z,3.47
2018-09-18T22:51:08.966Z,2.92
2018-09-18T22:53:39.278Z,2.70
2018-09-18T22:56:18.035Z,2.75
2018-09-18T22:58:47.131Z,2.25
2018-09-18T23:01:15.806Z,2.20
2018-09-18T23:03:46.484Z,2.17
2018-09-18T23:06:17.084Z,2.20
2018-09-18T23:08:48.036Z,1.98
2018-09-18T23:11:16.883Z,2.10
2018-09-18T23:13:45.699Z,2.20
2018-09-18T23:16:14.444Z,2.20
2018-09-18T23:18:43.317Z,2.30
2018-09-18T23:21:12.070Z,2.00
2018-09-18T23:23:41.830Z,2.00
2018-09-18T23:26:13.701Z,2.10
2018-09-18T23:28:42.420Z,2.20
2018-09-18T23:31:22.918Z,2.00
2018-09-18T23:33:51.695Z,2.12
2018-09-18T23:36:20.547Z,2.10
2018-09-18T23:38:49.337Z,2.37
2018-09-18T23:41:18.179Z,2.10
2018-09-18T23:43:47.022Z,2.05
2018-09-18T23:46:16.126Z,2.23
2018-09-18T23:48:44.844Z,2.10
2018-09-18T23:51:16.248Z,1.90
2018-09-18T23:53:46.017Z,2.42
2018-09-18T23:56:14.907Z,2.40
2018-09-18T23:58:43.826Z,2.30
